^^
Grace C. Lehan Memorial Weather Station Historical Data
Daily Summary for May 18, 2022 Units:  Both    English   Metric
Daily Weekly Monthly Yearly
  High: Low: Average:
Temperature: 44.4 °F /  6.9 °C 31.5 °F /  -0.3 °C 34.9 °F /  1.6 °C
Dew Point: 29.9 °F /  -1.2 °C 24.9 °F /  -3.9 °C 26.6 °F /  -3 °C
Humidity: 79% 54.8% 72%
Wind Speed: 4.9mph /  7.9km/h - 0.4mph /  0.6km/h
Wind Gust: 16mph /  25.7km/h - -
Wind- - WSW
Pressure: 30.04 in /  1017.2 hPa 29.99 in /  1015.5 hPa -
Precipitation: 0.00 in /  0 mm    
 
 
Tabular Data for May 18, 2022
Time Temperature Dew Point Pressure Wind Wind Speed Wind Gust Humidity Rainfall Rate (Hourly) solar
00:04 35.7 °F /  2.1 °C 25.5 °F /  -3.6 °C 29.99in /  1015.5hPa Calm     66% 0.00in /  0mm 0 W/m2
00:09 35.5 °F /  1.9 °C 25.3 °F /  -3.7 °C 29.99in /  1015.5hPa Calm     66% 0.00in /  0mm 0 W/m2
00:14 35.5 °F /  1.9 °C 25.3 °F /  -3.7 °C 30.00in /  1015.8hPa Calm     66% 0.00in /  0mm 0 W/m2
00:19 35.4 °F /  1.9 °C 25.4 °F /  -3.7 °C 29.99in /  1015.5hPa Calm     66.6% 0.00in /  0mm 0 W/m2
00:24 35.2 °F /  1.8 °C 25.4 °F /  -3.7 °C 30.00in /  1015.8hPa Calm     67.1% 0.00in /  0mm 0 W/m2
00:29 35 °F /  1.7 °C 25.5 °F /  -3.6 °C 30.00in /  1015.8hPa Calm     68% 0.00in /  0mm 0 W/m2
00:34 34.8 °F /  1.6 °C 25.3 °F /  -3.7 °C 30.00in /  1015.8hPa Calm     68% 0.00in /  0mm 0 W/m2
00:39 34.5 °F /  1.4 °C 25.3 °F /  -3.7 °C 30.00in /  1015.8hPa Calm     68.5% 0.00in /  0mm 0 W/m2
00:44 34.3 °F /  1.3 °C 25.4 °F /  -3.7 °C 30.00in /  1015.8hPa Calm     69.3% 0.00in /  0mm 0 W/m2
00:49 34.2 °F /  1.2 °C 25.4 °F /  -3.7 °C 30.00in /  1015.8hPa Calm     69.9% 0.00in /  0mm 0 W/m2
00:54 34 °F /  1.1 °C 25.2 °F /  -3.8 °C 30.00in /  1015.8hPa Calm     70% 0.00in /  0mm 0 W/m2
00:59 33.8 °F /  1 °C 25.2 °F /  -3.8 °C 30.00in /  1015.8hPa Calm     70.4% 0.00in /  0mm 0 W/m2
01:04 33.5 °F /  0.8 °C 25.2 °F /  -3.8 °C 30.00in /  1015.8hPa Calm     71% 0.00in /  0mm 0 W/m2
01:09 33.4 °F /  0.8 °C 25.3 °F /  -3.7 °C 30.00in /  1015.8hPa Calm     72% 0.00in /  0mm 0 W/m2
01:14 33.2 °F /  0.7 °C 25.1 °F /  -3.8 °C 30.00in /  1015.8hPa Calm     72% 0.00in /  0mm 0 W/m2
01:19 33 °F /  0.6 °C 25.1 °F /  -3.8 °C 30.00in /  1015.8hPa Calm     72.4% 0.00in /  0mm 0 W/m2
01:24 32.8 °F /  0.4 °C 25.2 °F /  -3.8 °C 30.00in /  1015.8hPa Calm     73% 0.00in /  0mm 0 W/m2
01:29 32.7 °F /  0.4 °C 25 °F /  -3.9 °C 29.99in /  1015.5hPa Calm     73% 0.00in /  0mm 0 W/m2
01:34 32.6 °F /  0.3 °C 24.9 °F /  -3.9 °C 29.99in /  1015.5hPa Calm     73% 0.00in /  0mm 0 W/m2
01:39 32.6 °F /  0.3 °C 24.9 °F /  -3.9 °C 29.99in /  1015.5hPa Calm     73% 0.00in /  0mm 0 W/m2
01:44 32.6 °F /  0.3 °C 24.9 °F /  -3.9 °C 29.99in /  1015.5hPa Calm     73% 0.00in /  0mm 0 W/m2
01:49 32.6 °F /  0.3 °C 25.1 °F /  -3.8 °C 29.99in /  1015.5hPa Calm     73.7% 0.00in /  0mm 0 W/m2
01:54 32.6 °F /  0.3 °C 25.3 °F /  -3.7 °C 29.99in /  1015.5hPa Calm     74% 0.00in /  0mm 0 W/m2
01:59 32.7 °F /  0.4 °C 25.3 °F /  -3.7 °C 30.00in /  1015.8hPa Calm     74% 0.00in /  0mm 0 W/m2
02:04 32.7 °F /  0.4 °C 25.5 °F /  -3.6 °C 30.00in /  1015.8hPa WSW 0.2mph /  0.3km/h 3mph /  4.8km/h 74.4% 0.00in /  0mm 0 W/m2
02:09 32.9 °F /  0.5 °C 25.8 °F /  -3.4 °C 30.00in /  1015.8hPa Calm   3mph /  4.8km/h 75% 0.00in /  0mm 0 W/m2
02:14 33 °F /  0.6 °C 25.9 °F /  -3.4 °C 30.00in /  1015.8hPa Calm   3mph /  4.8km/h 75% 0.00in /  0mm 0 W/m2
02:19 33.1 °F /  0.6 °C 26.1 °F /  -3.3 °C 30.00in /  1015.8hPa WSW 0.3mph /  0.5km/h 4mph /  6.4km/h 75% 0.00in /  0mm 0 W/m2
02:24 33.3 °F /  0.7 °C 26.2 °F /  -3.2 °C 29.99in /  1015.5hPa Calm   4mph /  6.4km/h 75% 0.00in /  0mm 0 W/m2
02:29 33.4 °F /  0.8 °C 26.2 °F /  -3.2 °C 29.99in /  1015.5hPa Calm   4mph /  6.4km/h 74.5% 0.00in /  0mm 0 W/m2
02:34 33.4 °F /  0.8 °C 26.3 °F /  -3.2 °C 30.00in /  1015.8hPa Calm   4mph /  6.4km/h 74.8% 0.00in /  0mm 0 W/m2
02:39 33.5 °F /  0.8 °C 26.4 °F /  -3.1 °C 30.00in /  1015.8hPa WSW 0.1mph /  0.2km/h 3mph /  4.8km/h 75% 0.00in /  0mm 0 W/m2
02:44 33.6 °F /  0.9 °C 26.4 °F /  -3.1 °C 30.00in /  1015.8hPa Calm   3mph /  4.8km/h 74.6% 0.00in /  0mm 0 W/m2
02:49 33.7 °F /  0.9 °C 26.3 °F /  -3.2 °C 30.00in /  1015.8hPa WSW 0.1mph /  0.2km/h 3mph /  4.8km/h 74% 0.00in /  0mm 0 W/m2
02:54 33.8 °F /  1 °C 26.4 °F /  -3.1 °C 30.00in /  1015.8hPa Calm   3mph /  4.8km/h 74% 0.00in /  0mm 0 W/m2
02:59 33.8 °F /  1 °C 26.4 °F /  -3.1 °C 30.00in /  1015.8hPa Calm   3mph /  4.8km/h 74% 0.00in /  0mm 0 W/m2
03:04 33.7 °F /  0.9 °C 26.3 °F /  -3.2 °C 30.00in /  1015.8hPa Calm   3mph /  4.8km/h 74% 0.00in /  0mm 0 W/m2
03:09 33.6 °F /  0.9 °C 26.2 °F /  -3.2 °C 30.00in /  1015.8hPa Calm     74% 0.00in /  0mm 0 W/m2
03:14 33.5 °F /  0.8 °C 26.1 °F /  -3.3 °C 30.00in /  1015.8hPa Calm     74% 0.00in /  0mm 0 W/m2
03:19 33.4 °F /  0.8 °C 26 °F /  -3.3 °C 30.00in /  1015.8hPa Calm     74% 0.00in /  0mm 0 W/m2
03:24 33.2 °F /  0.7 °C 25.9 °F /  -3.4 °C 30.00in /  1015.8hPa Calm     74.2% 0.00in /  0mm 0 W/m2
03:29 33.1 °F /  0.6 °C 25.9 °F /  -3.4 °C 30.00in /  1015.8hPa Calm     74.3% 0.00in /  0mm 0 W/m2
03:34 33.1 °F /  0.6 °C 25.7 °F /  -3.5 °C 30.00in /  1015.8hPa Calm     74% 0.00in /  0mm 0 W/m2
03:39 33.1 °F /  0.6 °C 25.7 °F /  -3.5 °C 30.00in /  1015.8hPa Calm     74% 0.00in /  0mm 0 W/m2
03:44 33.1 °F /  0.6 °C 25.7 °F /  -3.5 °C 30.01in /  1016.1hPa Calm     74% 0.00in /  0mm 0 W/m2
03:49 33.1 °F /  0.6 °C 25.7 °F /  -3.5 °C 30.01in /  1016.1hPa Calm     74% 0.00in /  0mm 0 W/m2
03:54 33 °F /  0.6 °C 25.6 °F /  -3.6 °C 30.01in /  1016.1hPa Calm     74% 0.00in /  0mm 0 W/m2
03:59 32.9 °F /  0.5 °C 25.6 °F /  -3.6 °C 30.00in /  1015.8hPa Calm     74% 0.00in /  0mm 0 W/m2
04:00 32.9 °F /  0.5 °C 25.5 °F /  -3.6 °C 30.00in /  1015.8hPa Calm     74% 0.00in /  0mm 0 W/m2
04:09 32.8 °F /  0.4 °C 25.4 °F /  -3.7 °C 30.01in /  1016.1hPa Calm     74% 0.00in /  0mm 0 W/m2
04:14 32.8 °F /  0.4 °C 25.4 °F /  -3.7 °C 30.01in /  1016.1hPa Calm     74% 0.00in /  0mm 0 W/m2
04:19 32.8 °F /  0.4 °C 25.4 °F /  -3.7 °C 30.01in /  1016.1hPa Calm     74% 0.00in /  0mm 0 W/m2
04:24 32.7 °F /  0.4 °C 25.4 °F /  -3.7 °C 30.01in /  1016.1hPa Calm     74.2% 0.00in /  0mm 0 W/m2
04:29 32.5 °F /  0.3 °C 25.5 °F /  -3.6 °C 30.01in /  1016.1hPa Calm     75% 0.00in /  0mm 0 W/m2
04:34 32.4 °F /  0.2 °C 25.3 °F /  -3.7 °C 30.01in /  1016.1hPa Calm     75% 0.00in /  0mm 0 W/m2
04:39 32.2 °F /  0.1 °C 25.4 °F /  -3.7 °C 30.01in /  1016.1hPa Calm     75.7% 0.00in /  0mm 0 W/m2
04:44 32.2 °F /  0.1 °C 25.5 °F /  -3.6 °C 30.01in /  1016.1hPa Calm     76% 0.00in /  0mm 0 W/m2
04:49 32.2 °F /  0.1 °C 25.5 °F /  -3.6 °C 30.01in /  1016.1hPa Calm     76% 0.00in /  0mm 0 W/m2
04:54 32.2 °F /  0.1 °C 25.6 °F /  -3.6 °C 30.01in /  1016.1hPa Calm     76.2% 0.00in /  0mm 0 W/m2
04:59 32.1 °F /  0.1 °C 25.4 °F /  -3.7 °C 30.01in /  1016.1hPa Calm     76.1% 0.00in /  0mm 0 W/m2
05:04 32.1 °F /  0.1 °C 25.7 °F /  -3.5 °C 30.01in /  1016.1hPa Calm     77% 0.00in /  0mm 0 W/m2
05:09 32.1 °F /  0.1 °C 25.7 °F /  -3.5 °C 30.01in /  1016.1hPa Calm     77% 0.00in /  0mm 0 W/m2
05:14 32.1 °F /  0.1 °C 25.7 °F /  -3.5 °C 30.01in /  1016.1hPa Calm     77% 0.00in /  0mm 0 W/m2
05:19 32.1 °F /  0.1 °C 25.7 °F /  -3.5 °C 30.01in /  1016.1hPa Calm     77% 0.00in /  0mm 0 W/m2
05:24 32.1 °F /  0.1 °C 25.7 °F /  -3.5 °C 30.01in /  1016.1hPa Calm     77% 0.00in /  0mm 0 W/m2
05:29 32 °F /  0 °C 25.6 °F /  -3.6 °C 30.01in /  1016.1hPa Calm     77% 0.00in /  0mm 0 W/m2
05:34 31.9 °F /  -0.1 °C 25.6 °F /  -3.6 °C 30.01in /  1016.1hPa Calm     77% 0.00in /  0mm 0 W/m2
05:39 31.8 °F /  -0.1 °C 25.5 °F /  -3.6 °C 30.01in /  1016.1hPa Calm     77% 0.00in /  0mm 0 W/m2
05:44 31.7 °F /  -0.2 °C 25.5 °F /  -3.6 °C 30.02in /  1016.5hPa Calm     77.5% 0.00in /  0mm 0 W/m2
05:49 31.6 °F /  -0.2 °C 25.6 °F /  -3.6 °C 30.02in /  1016.5hPa Calm     78% 0.00in /  0mm 0 W/m2
05:54 31.6 °F /  -0.2 °C 25.5 °F /  -3.6 °C 30.01in /  1016.1hPa Calm     78% 0.00in /  0mm 0 W/m2
05:59 31.6 °F /  -0.2 °C 25.5 °F /  -3.6 °C 30.02in /  1016.5hPa Calm     78% 0.00in /  0mm 0 W/m2
06:04 31.5 °F /  -0.3 °C 25.5 °F /  -3.6 °C 30.02in /  1016.5hPa Calm     78% 0.00in /  0mm 0 W/m2
06:09 31.5 °F /  -0.3 °C 25.5 °F /  -3.6 °C 30.02in /  1016.5hPa Calm     78% 0.00in /  0mm 0 W/m2
06:14 31.5 °F /  -0.3 °C 25.4 °F /  -3.7 °C 30.02in /  1016.5hPa Calm     78% 0.00in /  0mm 0 W/m2
06:19 31.5 °F /  -0.3 °C 25.7 °F /  -3.5 °C 30.02in /  1016.5hPa Calm     78.8% 0.00in /  0mm 0 W/m2
06:24 31.5 °F /  -0.3 °C 25.7 °F /  -3.5 °C 30.02in /  1016.5hPa Calm     79% 0.00in /  0mm 0 W/m2
06:29 31.5 °F /  -0.3 °C 25.7 °F /  -3.5 °C 30.02in /  1016.5hPa Calm     79% 0.00in /  0mm 0 W/m2
06:34 31.5 °F /  -0.3 °C 25.8 °F /  -3.4 °C 30.02in /  1016.5hPa Calm     79% 0.00in /  0mm 0 W/m2
06:39 31.5 °F /  -0.3 °C 25.8 °F /  -3.4 °C 30.02in /  1016.5hPa Calm     79% 0.00in /  0mm 0 W/m2
06:44 31.6 °F /  -0.2 °C 25.8 °F /  -3.4 °C 30.03in /  1016.8hPa Calm   2mph /  3.2km/h 79% 0.00in /  0mm 0 W/m2
06:49 31.7 °F /  -0.2 °C 25.9 °F /  -3.4 °C 30.03in /  1016.8hPa WSW 0.1mph /  0.2km/h 2mph /  3.2km/h 79% 0.00in /  0mm 5 W/m2
06:54 31.7 °F /  -0.2 °C 26 °F /  -3.3 °C 30.02in /  1016.5hPa Calm   2mph /  3.2km/h 79% 0.00in /  0mm 11 W/m2
06:59 31.8 °F /  -0.1 °C 26.1 °F /  -3.3 °C 30.02in /  1016.5hPa Calm   2mph /  3.2km/h 79% 0.00in /  0mm 12 W/m2
07:04 31.9 °F /  -0.1 °C 26.1 °F /  -3.3 °C 30.03in /  1016.8hPa Calm   2mph /  3.2km/h 79% 0.00in /  0mm 19 W/m2
07:09 32 °F /  0 °C 26.2 °F /  -3.2 °C 30.03in /  1016.8hPa Calm     79% 0.00in /  0mm 32 W/m2
07:14 32.2 °F /  0.1 °C 26.4 °F /  -3.1 °C 30.03in /  1016.8hPa Calm     79% 0.00in /  0mm 42 W/m2
07:19 32.4 °F /  0.2 °C 26.6 °F /  -3 °C 30.04in /  1017.2hPa Calm     79% 0.00in /  0mm 72 W/m2
07:24 32.9 °F /  0.5 °C 27 °F /  -2.8 °C 30.04in /  1017.2hPa Calm   1mph /  1.6km/h 78.7% 0.00in /  0mm 88 W/m2
07:29 33.5 °F /  0.8 °C 27.4 °F /  -2.6 °C 30.04in /  1017.2hPa WSW 0.2mph /  0.3km/h 3mph /  4.8km/h 78% 0.00in /  0mm 102 W/m2
07:34 34.4 °F /  1.3 °C 28 °F /  -2.2 °C 30.04in /  1017.2hPa WSW 0.2mph /  0.3km/h 4mph /  6.4km/h 77.3% 0.00in /  0mm 118 W/m2
07:39 35.2 °F /  1.8 °C 28.5 °F /  -1.9 °C 30.04in /  1017.2hPa WSW 0.7mph /  1.1km/h 4mph /  6.4km/h 76.3% 0.00in /  0mm 137 W/m2
07:44 36.1 °F /  2.3 °C 28.7 °F /  -1.8 °C 30.04in /  1017.2hPa WSW 0.4mph /  0.6km/h 4mph /  6.4km/h 74.3% 0.00in /  0mm 151 W/m2
07:49 37 °F /  2.8 °C 29 °F /  -1.7 °C 30.04in /  1017.2hPa Calm   4mph /  6.4km/h 72.4% 0.00in /  0mm 160 W/m2
07:54 37.7 °F /  3.2 °C 29 °F /  -1.7 °C 30.04in /  1017.2hPa WSW 1.6mph /  2.6km/h 7mph /  11.3km/h 70.7% 0.00in /  0mm 160 W/m2
07:59 38.1 °F /  3.4 °C 29 °F /  -1.7 °C 30.04in /  1017.2hPa WSW 1.4mph /  2.3km/h 9mph /  14.5km/h 69.3% 0.00in /  0mm 167 W/m2
08:00 38.3 °F /  3.5 °C 29 °F /  -1.7 °C 30.04in /  1017.2hPa Calm   9mph /  14.5km/h 69% 0.00in /  0mm 167 W/m2
08:09 38.8 °F /  3.8 °C 28.9 °F /  -1.7 °C 30.04in /  1017.2hPa WSW 0.3mph /  0.5km/h 5mph /  8km/h 67.3% 0.00in /  0mm 211 W/m2
08:14 39.1 °F /  3.9 °C 28.9 °F /  -1.7 °C 30.04in /  1017.2hPa WSW 0.8mph /  1.3km/h 6mph /  9.7km/h 66.5% 0.00in /  0mm 239 W/m2
08:19 39.4 °F /  4.1 °C 29.1 °F /  -1.6 °C 30.04in /  1017.2hPa WSW 0.9mph /  1.4km/h 9mph /  14.5km/h 66.3% 0.00in /  0mm 244 W/m2
08:24 39.8 °F /  4.3 °C 29.3 °F /  -1.5 °C 30.03in /  1016.8hPa WSW 2mph /  3.2km/h 10mph /  16.1km/h 65.8% 0.00in /  0mm 246 W/m2
08:29 40 °F /  4.4 °C 29.3 °F /  -1.5 °C 30.04in /  1017.2hPa WSW 0.1mph /  0.2km/h 10mph /  16.1km/h 65.2% 0.00in /  0mm 272 W/m2
08:34 40.5 °F /  4.7 °C 29.8 °F /  -1.2 °C 30.03in /  1016.8hPa WSW 1mph /  1.6km/h 10mph /  16.1km/h 65.2% 0.00in /  0mm 287 W/m2
08:39 41 °F /  5 °C 29.4 °F /  -1.4 °C 30.03in /  1016.8hPa WSW 2mph /  3.2km/h 10mph /  16.1km/h 63.2% 0.00in /  0mm 267 W/m2
08:44 40.9 °F /  4.9 °C 29.1 °F /  -1.6 °C 30.03in /  1016.8hPa SW 1.9mph /  3.1km/h 13mph /  20.9km/h 62.5% 0.00in /  0mm 304 W/m2
08:49 40.8 °F /  4.9 °C 29 °F /  -1.7 °C 30.02in /  1016.5hPa WSW 1.8mph /  2.9km/h 13mph /  20.9km/h 62.5% 0.00in /  0mm 318 W/m2
08:54 40.8 °F /  4.9 °C 28.9 °F /  -1.7 °C 30.03in /  1016.8hPa WSW 2.6mph /  4.2km/h 13mph /  20.9km/h 62.4% 0.00in /  0mm 318 W/m2
08:59 40.5 °F /  4.7 °C 28.6 °F /  -1.9 °C 30.03in /  1016.8hPa WSW 1.1mph /  1.8km/h 13mph /  20.9km/h 62.2% 0.00in /  0mm 255 W/m2
09:04 40.2 °F /  4.6 °C 28.8 °F /  -1.8 °C 30.03in /  1016.8hPa WSW 2.2mph /  3.5km/h 13mph /  20.9km/h 63.3% 0.00in /  0mm 216 W/m2
09:09 40 °F /  4.4 °C 28.6 °F /  -1.9 °C 30.02in /  1016.5hPa SW 1.3mph /  2.1km/h 13mph /  20.9km/h 63.4% 0.00in /  0mm 91 W/m2
09:14 39.8 °F /  4.3 °C 28.7 °F /  -1.8 °C 30.03in /  1016.8hPa WSW 2.4mph /  3.9km/h 13mph /  20.9km/h 64.2% 0.00in /  0mm 148 W/m2
09:19 39.7 °F /  4.3 °C 28.2 °F /  -2.1 °C 30.03in /  1016.8hPa WSW 3.4mph /  5.5km/h 13mph /  20.9km/h 63.1% 0.00in /  0mm 243 W/m2
09:24 39.6 °F /  4.2 °C 28.4 °F /  -2 °C 30.02in /  1016.5hPa WSW 4.9mph /  7.9km/h 13mph /  20.9km/h 63.9% 0.00in /  0mm 253 W/m2
09:29 39.8 °F /  4.3 °C 28.4 °F /  -2 °C 30.02in /  1016.5hPa SW 1.1mph /  1.8km/h 13mph /  20.9km/h 63.4% 0.00in /  0mm 153 W/m2
09:34 40 °F /  4.4 °C 28.6 °F /  -1.9 °C 30.02in /  1016.5hPa West 2.6mph /  4.2km/h 13mph /  20.9km/h 63.6% 0.00in /  0mm 162 W/m2
09:39 40.1 °F /  4.5 °C 28.8 °F /  -1.8 °C 30.02in /  1016.5hPa West 2.4mph /  3.9km/h 12mph /  19.3km/h 63.7% 0.00in /  0mm 193 W/m2
09:44 40.3 °F /  4.6 °C 28.6 °F /  -1.9 °C 30.03in /  1016.8hPa WSW 3.4mph /  5.5km/h 12mph /  19.3km/h 62.6% 0.00in /  0mm 281 W/m2
09:49 40.6 °F /  4.8 °C 28.7 °F /  -1.8 °C 30.02in /  1016.5hPa WSW 1.7mph /  2.7km/h 16mph /  25.7km/h 62.4% 0.00in /  0mm 318 W/m2
09:54 40.9 °F /  4.9 °C 29.2 °F /  -1.6 °C 30.02in /  1016.5hPa SW 0.4mph /  0.6km/h 16mph /  25.7km/h 62.7% 0.00in /  0mm 315 W/m2
09:59 41.3 °F /  5.2 °C 29.3 °F /  -1.5 °C 30.02in /  1016.5hPa WSW 1.7mph /  2.7km/h 16mph /  25.7km/h 61.9% 0.00in /  0mm 315 W/m2
10:04 41.7 °F /  5.4 °C 28.8 °F /  -1.8 °C 30.03in /  1016.8hPa WSW 0.5mph /  0.8km/h 16mph /  25.7km/h 59.8% 0.00in /  0mm 471 W/m2
10:09 42.4 °F /  5.8 °C 29.8 °F /  -1.2 °C 30.03in /  1016.8hPa WSW 0.4mph /  0.6km/h 5mph /  8km/h 60.8% 0.00in /  0mm 473 W/m2
10:14 43.2 °F /  6.2 °C 29.9 °F /  -1.2 °C 30.03in /  1016.8hPa SW 2mph /  3.2km/h 7mph /  11.3km/h 59% 0.00in /  0mm 425 W/m2
10:19 43.8 °F /  6.6 °C 29.3 °F /  -1.5 °C 30.03in /  1016.8hPa West 2.5mph /  4km/h 11mph /  17.7km/h 56.3% 0.00in /  0mm 487 W/m2
10:24 44.2 °F /  6.8 °C 29 °F /  -1.7 °C 30.03in /  1016.8hPa WSW 2.1mph /  3.4km/h 11mph /  17.7km/h 54.8% 0.00in /  0mm 503 W/m2
10:27 44.4 °F /  6.9 °C 29.4 °F /  -1.4 °C 30.03in /  1016.8hPa Calm   11mph /  17.7km/h 55.3% 0.00in /  0mm 504 W/m2
Hartford County Weather
Compliments of Weather Underground - 2 mb